DOY weather

Dongying Shengli Airport
Dongying, Shandong Province, China

Public forecast

Using degrees Celsius for public forecast. Weather courtesy of forecast.io.

Closest aviation weather report (METAR) to Dongying Shengli Airport

Report is more than 6 hours old.

Closest report is Weifang Airport, 54.1 nm (100.2 km) SSE. Retrieved 2015/04/16 05:00 UTC (5 years ago):

ZSWF 160500Z 32007MPS CAVOK 19/M11 Q1014 NOSIG

Closest aviation forecast (TAF) to Dongying Shengli Airport

Forecast is more than 12 hours old.

Closest forecast is Weifang Airport, 54.1 nm (100.2 km) SSE. Retrieved 2013/01/21 15:24 UTC (8 years ago):

TAF ZSWF 211403Z 211524 33005MPS 4000 BR NSC M02/M05 Q1030 NOSIG